createdAt,value
2017-08-26T00:00:31.494Z,10.90
2017-08-26T00:03:03.958Z,11.30
2017-08-26T00:05:31.562Z,11.73
2017-08-26T00:07:59.202Z,11.30
2017-08-26T00:10:26.751Z,10.90
2017-08-26T00:12:54.302Z,11.13
2017-08-26T00:15:21.820Z,10.37
2017-08-26T00:17:49.350Z,10.90
2017-08-26T00:20:16.888Z,10.30
2017-08-26T00:22:44.422Z,10.80
2017-08-26T00:25:11.958Z,9.93
2017-08-26T00:27:39.570Z,9.83
2017-08-26T00:30:07.129Z,9.70
2017-08-26T00:32:34.678Z,9.10
2017-08-26T00:35:02.221Z,8.70
2017-08-26T00:37:29.745Z,8.50
2017-08-26T00:39:57.261Z,9.03
2017-08-26T00:42:24.827Z,9.20
2017-08-26T00:44:52.347Z,8.47
2017-08-26T00:47:19.940Z,8.00
2017-08-26T00:49:47.504Z,9.07
2017-08-26T00:52:15.098Z,8.13
2017-08-26T00:54:42.730Z,7.80
2017-08-26T00:57:10.285Z,7.77
2017-08-26T00:59:37.848Z,7.90
2017-08-26T01:02:05.407Z,7.87
2017-08-26T01:04:32.971Z,7.23
2017-08-26T01:07:06.234Z,7.50
2017-08-26T01:09:33.820Z,8.20
2017-08-26T01:12:01.699Z,8.20
2017-08-26T01:14:30.012Z,7.47
2017-08-26T01:16:57.601Z,7.77
2017-08-26T01:19:25.125Z,7.67
2017-08-26T01:21:52.754Z,7.27
2017-08-26T01:24:20.405Z,7.97
2017-08-26T01:26:47.917Z,7.67
2017-08-26T01:29:15.521Z,7.60
2017-08-26T01:31:43.057Z,8.17
2017-08-26T01:34:10.573Z,8.30
2017-08-26T01:36:38.088Z,7.80
2017-08-26T01:39:05.659Z,8.67
2017-08-26T01:41:33.215Z,8.00
2017-08-26T01:44:00.737Z,8.20
2017-08-26T01:46:28.277Z,8.40
2017-08-26T01:48:55.909Z,8.60
2017-08-26T01:51:23.428Z,8.40
2017-08-26T01:53:50.964Z,7.90
2017-08-26T01:56:18.496Z,7.53
2017-08-26T01:58:46.034Z,8.50
2017-08-26T02:01:13.598Z,8.73
2017-08-26T02:03:41.157Z,12.70
2017-08-26T02:06:08.710Z,8.60
2017-08-26T02:08:36.262Z,9.00
2017-08-26T02:11:03.834Z,8.97
2017-08-26T02:13:31.360Z,9.17
2017-08-26T02:15:59.657Z,9.70
2017-08-26T02:18:27.230Z,9.50
2017-08-26T02:20:54.766Z,9.47
2017-08-26T02:23:22.338Z,9.40
2017-08-26T02:25:49.913Z,9.20
2017-08-26T02:28:17.465Z,8.80
2017-08-26T02:30:45.002Z,9.57
2017-08-26T02:33:12.521Z,9.20
2017-08-26T02:35:40.247Z,9.03
2017-08-26T02:38:07.807Z,9.80
2017-08-26T02:40:35.329Z,9.10
2017-08-26T02:43:02.841Z,9.37
2017-08-26T02:45:30.483Z,8.80
2017-08-26T02:47:58.005Z,10.03
2017-08-26T02:50:25.605Z,10.57
2017-08-26T02:52:53.233Z,9.87
2017-08-26T02:55:21.532Z,11.23
2017-08-26T02:57:49.057Z,10.00
2017-08-26T03:00:16.707Z,10.23
2017-08-26T03:02:44.331Z,9.27
2017-08-26T03:05:11.854Z,9.97
2017-08-26T03:07:39.442Z,10.87
2017-08-26T03:10:06.974Z,12.07
2017-08-26T03:12:34.579Z,10.70
2017-08-26T03:15:02.225Z,11.33
2017-08-26T03:17:29.791Z,10.70
2017-08-26T03:19:57.352Z,10.97
2017-08-26T03:22:25.040Z,11.60
2017-08-26T03:24:52.570Z,12.40
2017-08-26T03:27:20.130Z,11.33
2017-08-26T03:29:47.703Z,11.40
2017-08-26T03:32:15.258Z,11.70
2017-08-26T03:34:42.789Z,11.77
2017-08-26T03:37:10.338Z,11.03
2017-08-26T03:39:38.637Z,11.93
2017-08-26T03:42:06.161Z,10.80
2017-08-26T03:44:33.745Z,12.53
2017-08-26T03:47:01.269Z,11.97
2017-08-26T03:49:28.813Z,12.13
2017-08-26T03:51:56.827Z,12.60
2017-08-26T03:54:24.412Z,11.53
2017-08-26T03:56:51.974Z,12.17
2017-08-26T03:59:19.526Z,12.27
2017-08-26T04:01:47.053Z,22.43
2017-08-26T04:04:15.343Z,14.93
2017-08-26T04:06:42.926Z,13.07
2017-08-26T04:09:10.454Z,13.30
2017-08-26T04:11:38.762Z,14.10
2017-08-26T04:14:06.349Z,13.43
2017-08-26T04:16:33.870Z,17.93
2017-08-26T04:19:01.397Z,19.53
2017-08-26T04:21:29.020Z,16.50
2017-08-26T04:23:56.538Z,14.67
2017-08-26T04:26:24.070Z,12.90
2017-08-26T04:28:51.674Z,13.40
2017-08-26T04:31:19.242Z,13.07
2017-08-26T04:33:46.803Z,13.97
2017-08-26T04:36:14.462Z,13.47
2017-08-26T04:38:41.997Z,11.87
2017-08-26T04:41:09.585Z,14.10
2017-08-26T04:43:37.953Z,12.90
2017-08-26T04:46:05.521Z,13.90
2017-08-26T04:48:33.084Z,13.20
2017-08-26T04:51:00.716Z,13.20
2017-08-26T04:53:28.261Z,12.63
2017-08-26T04:55:55.821Z,12.10
2017-08-26T04:58:23.448Z,13.57
2017-08-26T05:00:51.009Z,13.17
2017-08-26T05:03:18.529Z,12.50
2017-08-26T05:05:46.137Z,13.23
2017-08-26T05:08:13.775Z,12.27
2017-08-26T05:10:41.304Z,12.10
2017-08-26T05:13:08.877Z,11.80
2017-08-26T05:15:36.439Z,12.67
2017-08-26T05:18:04.006Z,11.87
2017-08-26T05:20:31.554Z,12.03
2017-08-26T05:22:59.074Z,11.57
2017-08-26T05:25:26.682Z,11.60
2017-08-26T05:27:54.233Z,11.83
2017-08-26T05:30:21.896Z,12.97
2017-08-26T05:32:49.457Z,12.43
2017-08-26T05:35:16.998Z,11.87
2017-08-26T05:37:44.662Z,12.33
2017-08-26T05:40:12.194Z,12.13
2017-08-26T05:42:39.817Z,12.47
2017-08-26T05:45:07.351Z,13.40
2017-08-26T05:47:35.626Z,14.37
2017-08-26T05:50:03.197Z,13.60
2017-08-26T05:52:30.762Z,13.87
2017-08-26T05:54:58.325Z,12.93
2017-08-26T05:57:25.869Z,13.17
2017-08-26T05:59:53.400Z,15.87
2017-08-26T06:02:20.934Z,14.43
2017-08-26T06:04:48.476Z,14.80
2017-08-26T06:07:16.009Z,16.40
2017-08-26T06:09:43.535Z,15.47
2017-08-26T06:12:11.134Z,16.70
2017-08-26T06:14:38.731Z,16.00
2017-08-26T06:17:06.265Z,16.07
2017-08-26T06:19:33.808Z,18.40
2017-08-26T06:22:01.958Z,16.00
2017-08-26T06:24:29.487Z,16.90
2017-08-26T06:26:57.108Z,18.03
2017-08-26T06:29:24.662Z,16.43
2017-08-26T06:31:52.226Z,15.43
2017-08-26T06:34:19.782Z,15.80
2017-08-26T06:36:47.318Z,15.50
2017-08-26T06:39:14.906Z,15.53
2017-08-26T06:41:42.456Z,14.20
2017-08-26T06:44:10.022Z,14.27
2017-08-26T06:46:38.314Z,14.30
2017-08-26T06:49:05.962Z,12.40
2017-08-26T06:51:33.517Z,12.47
2017-08-26T06:54:01.178Z,11.90
2017-08-26T06:56:28.721Z,11.43
2017-08-26T06:58:56.253Z,11.93
2017-08-26T07:01:23.796Z,11.73
2017-08-26T07:03:51.422Z,10.83
2017-08-26T07:06:18.940Z,10.13
2017-08-26T07:08:46.537Z,9.80
2017-08-26T07:11:14.078Z,10.73
2017-08-26T07:13:41.605Z,10.60
2017-08-26T07:16:09.131Z,10.97
2017-08-26T07:18:36.737Z,10.73
2017-08-26T07:21:04.337Z,11.37
2017-08-26T07:23:31.907Z,11.37
2017-08-26T07:25:59.563Z,11.23
2017-08-26T07:28:27.113Z,9.60
2017-08-26T07:30:54.644Z,11.97
2017-08-26T07:33:22.278Z,11.60
2017-08-26T07:35:49.878Z,10.43
2017-08-26T07:38:17.506Z,10.57
2017-08-26T07:40:45.116Z,11.60
2017-08-26T07:43:12.646Z,10.80
2017-08-26T07:45:40.338Z,10.27
2017-08-26T07:48:07.877Z,9.57
2017-08-26T07:50:35.402Z,10.97
2017-08-26T07:53:03.035Z,9.90
2017-08-26T07:55:31.228Z,10.40
2017-08-26T07:57:58.869Z,10.37
2017-08-26T08:00:26.395Z,10.47
2017-08-26T08:02:53.938Z,9.90
2017-08-26T08:05:21.541Z,9.17
2017-08-26T08:07:49.089Z,9.97
2017-08-26T08:10:16.631Z,8.63
2017-08-26T08:12:44.215Z,9.50
2017-08-26T08:15:11.747Z,9.43
2017-08-26T08:17:39.351Z,9.07
2017-08-26T08:20:06.901Z,10.37
2017-08-26T08:22:34.451Z,9.63
2017-08-26T08:25:02.628Z,10.10
2017-08-26T08:27:30.180Z,11.43
2017-08-26T08:29:57.740Z,9.10
2017-08-26T08:32:25.282Z,10.17
2017-08-26T08:34:52.806Z,9.63
2017-08-26T08:37:20.346Z,10.30
2017-08-26T08:39:47.982Z,8.93
2017-08-26T08:42:15.558Z,10.17
2017-08-26T08:44:43.096Z,10.43
2017-08-26T08:47:10.649Z,10.33
2017-08-26T08:49:38.552Z,10.27
2017-08-26T08:52:06.074Z,11.13
2017-08-26T08:54:33.645Z,9.80
2017-08-26T08:57:02.227Z,9.77
2017-08-26T08:59:29.753Z,8.83
2017-08-26T09:01:57.345Z,9.13
2017-08-26T09:04:24.873Z,9.77
2017-08-26T09:06:53.179Z,10.30
2017-08-26T09:09:20.730Z,9.00
2017-08-26T09:11:48.253Z,9.17
2017-08-26T09:14:15.768Z,9.93
2017-08-26T09:16:43.319Z,9.43
2017-08-26T09:19:10.874Z,10.57
2017-08-26T09:21:38.411Z,10.57
2017-08-26T09:24:05.955Z,9.70
2017-08-26T09:26:33.478Z,9.03
2017-08-26T09:29:01.014Z,11.07
2017-08-26T09:31:28.548Z,10.73
2017-08-26T09:33:56.840Z,9.03
2017-08-26T09:36:24.370Z,8.70
2017-08-26T09:38:51.910Z,9.83
2017-08-26T09:41:19.438Z,10.00
2017-08-26T09:43:46.969Z,9.10
2017-08-26T09:46:14.526Z,8.70
2017-08-26T09:48:42.112Z,8.60
2017-08-26T09:51:09.637Z,9.03
2017-08-26T09:53:37.178Z,9.17
2017-08-26T09:56:04.709Z,13.17
2017-08-26T09:58:32.226Z,9.20
2017-08-26T10:00:59.769Z,8.30
2017-08-26T10:03:27.361Z,8.20
2017-08-26T10:05:54.919Z,8.73
2017-08-26T10:08:22.478Z,9.20
2017-08-26T10:10:49.991Z,8.80
2017-08-26T10:13:17.514Z,8.60
2017-08-26T10:15:45.141Z,8.53
2017-08-26T10:18:12.733Z,11.10
2017-08-26T10:20:40.273Z,7.93
2017-08-26T10:23:07.809Z,8.20
2017-08-26T10:25:35.344Z,7.90
2017-08-26T10:28:02.963Z,8.10
2017-08-26T10:30:30.506Z,9.73
2017-08-26T10:32:58.089Z,8.70
2017-08-26T10:35:25.606Z,8.07
2017-08-26T10:37:53.146Z,9.10
2017-08-26T10:40:20.665Z,7.80
2017-08-26T10:42:48.184Z,8.97
2017-08-26T10:45:15.730Z,7.33
2017-08-26T10:47:43.257Z,7.47
2017-08-26T10:50:10.786Z,7.60
2017-08-26T10:52:38.330Z,7.77
2017-08-26T10:55:05.849Z,6.97
2017-08-26T10:57:33.373Z,8.23
2017-08-26T11:00:01.878Z,9.03
2017-08-26T11:02:29.404Z,7.13
2017-08-26T11:04:56.925Z,7.30
2017-08-26T11:07:24.468Z,7.63
2017-08-26T11:09:52.001Z,8.30
2017-08-26T11:12:19.525Z,6.10
2017-08-26T11:14:47.657Z,5.60
2017-08-26T11:17:15.276Z,5.77
2017-08-26T11:19:42.834Z,6.60
2017-08-26T11:22:10.392Z,6.27
2017-08-26T11:24:37.953Z,6.10
2017-08-26T11:27:05.468Z,7.67
2017-08-26T11:29:33.069Z,6.47
2017-08-26T11:32:00.595Z,5.70
2017-08-26T11:34:28.200Z,6.03
2017-08-26T11:36:55.852Z,5.73
2017-08-26T11:39:23.986Z,6.13
2017-08-26T11:41:51.502Z,5.00
2017-08-26T11:44:19.072Z,6.10
2017-08-26T11:46:46.594Z,5.45
2017-08-26T11:49:14.170Z,5.78
2017-08-26T11:51:41.860Z,5.78
2017-08-26T11:54:10.093Z,5.75
2017-08-26T11:56:37.661Z,5.62
2017-08-26T11:59:05.221Z,5.28
2017-08-26T12:01:32.749Z,4.37
2017-08-26T12:04:01.332Z,6.55
2017-08-26T12:06:28.921Z,4.45
2017-08-26T12:08:56.469Z,5.30
2017-08-26T12:11:23.993Z,4.82
2017-08-26T12:13:51.549Z,5.07
2017-08-26T12:16:19.221Z,5.93
2017-08-26T12:18:46.925Z,5.07
2017-08-26T12:21:14.463Z,6.85
2017-08-26T12:23:42.059Z,4.78
2017-08-26T12:26:09.706Z,5.62
2017-08-26T12:28:37.265Z,4.97
2017-08-26T12:31:04.823Z,5.20
2017-08-26T12:33:32.341Z,5.22
2017-08-26T12:35:59.883Z,5.32
2017-08-26T12:38:27.403Z,4.43
2017-08-26T12:40:54.924Z,5.65
2017-08-26T12:43:22.565Z,5.12
2017-08-26T12:45:50.203Z,4.97
2017-08-26T12:48:17.722Z,6.45
2017-08-26T12:50:45.302Z,5.20
2017-08-26T12:53:12.901Z,4.60
2017-08-26T12:55:40.430Z,4.87
2017-08-26T12:58:07.984Z,4.80
2017-08-26T13:00:35.517Z,4.72
2017-08-26T13:03:03.042Z,4.80
2017-08-26T13:05:30.682Z,4.72
2017-08-26T13:07:58.206Z,5.32
2017-08-26T13:10:25.781Z,4.75
2017-08-26T13:12:53.326Z,4.65
2017-08-26T13:15:20.854Z,4.70
2017-08-26T13:17:48.465Z,4.97
2017-08-26T13:20:16.005Z,4.72
2017-08-26T13:22:43.541Z,6.28
2017-08-26T13:25:11.855Z,4.60
2017-08-26T13:27:39.409Z,4.47
2017-08-26T13:30:06.928Z,4.62
2017-08-26T13:32:34.531Z,4.78
2017-08-26T13:35:02.097Z,4.80
2017-08-26T13:37:29.854Z,4.75
2017-08-26T13:39:57.383Z,5.28
2017-08-26T13:42:24.987Z,4.72
2017-08-26T13:44:52.501Z,4.72
2017-08-26T13:47:20.021Z,3.97
2017-08-26T13:49:47.652Z,4.43
2017-08-26T13:52:15.177Z,5.22
2017-08-26T13:54:42.772Z,4.37
2017-08-26T13:57:10.338Z,4.78
2017-08-26T13:59:37.876Z,4.80
2017-08-26T14:02:05.608Z,4.45
2017-08-26T14:04:33.148Z,4.22
2017-08-26T14:07:00.778Z,4.50
2017-08-26T14:09:28.334Z,4.75
2017-08-26T14:11:55.902Z,4.62
2017-08-26T14:14:23.454Z,4.20
2017-08-26T14:16:50.970Z,4.22
2017-08-26T14:19:19.282Z,5.03
2017-08-26T14:21:46.822Z,5.15
2017-08-26T14:24:14.344Z,4.68
2017-08-26T14:26:41.986Z,4.75
2017-08-26T14:29:09.505Z,5.15
2017-08-26T14:31:37.100Z,4.50
2017-08-26T14:34:04.671Z,4.60
2017-08-26T14:36:32.225Z,4.40
2017-08-26T14:38:59.757Z,4.93
2017-08-26T14:41:27.427Z,4.18
2017-08-26T14:43:54.945Z,4.70
2017-08-26T14:46:22.556Z,5.00
2017-08-26T14:48:50.098Z,4.78
2017-08-26T14:51:17.640Z,4.80
2017-08-26T14:53:45.166Z,4.78
2017-08-26T14:56:12.712Z,3.80
2017-08-26T14:58:40.230Z,5.22
2017-08-26T15:01:07.754Z,4.57
2017-08-26T15:03:35.375Z,5.05
2017-08-26T15:06:02.918Z,5.28
2017-08-26T15:08:30.478Z,5.30
2017-08-26T15:10:58.021Z,4.57
2017-08-26T15:13:25.565Z,4.73
2017-08-26T15:15:53.106Z,5.40
2017-08-26T15:18:20.718Z,4.77
2017-08-26T15:20:48.277Z,5.03
2017-08-26T15:23:15.837Z,5.43
2017-08-26T15:25:43.385Z,5.30
2017-08-26T15:28:10.915Z,6.50
2017-08-26T15:30:38.525Z,4.90
2017-08-26T15:33:06.070Z,5.80
2017-08-26T15:35:33.633Z,6.30
2017-08-26T15:38:01.194Z,5.33
2017-08-26T15:40:28.785Z,5.33
2017-08-26T15:42:56.321Z,6.90
2017-08-26T15:45:23.870Z,5.73
2017-08-26T15:47:51.409Z,8.13
2017-08-26T15:50:18.927Z,7.00
2017-08-26T15:52:46.449Z,5.33
2017-08-26T15:55:14.005Z,5.67
2017-08-26T15:57:41.568Z,16.57
2017-08-26T16:00:09.129Z,5.97
2017-08-26T16:02:36.673Z,11.17
2017-08-26T16:05:04.200Z,6.90
2017-08-26T16:07:31.734Z,11.50
2017-08-26T16:09:59.279Z,6.27
2017-08-26T16:12:26.822Z,11.87
2017-08-26T16:14:54.382Z,5.63
2017-08-26T16:17:21.918Z,6.50
2017-08-26T16:19:49.512Z,5.97
2017-08-26T16:22:17.036Z,6.20
2017-08-26T16:24:44.584Z,5.87
2017-08-26T16:27:12.114Z,6.17
2017-08-26T16:29:39.637Z,7.47
2017-08-26T16:32:07.181Z,11.20
2017-08-26T16:34:34.701Z,7.43
2017-08-26T16:37:02.339Z,8.50
2017-08-26T16:39:29.969Z,6.43
2017-08-26T16:41:57.545Z,9.40
2017-08-26T16:44:25.067Z,6.50
2017-08-26T16:46:52.601Z,5.70
2017-08-26T16:49:20.129Z,7.63
2017-08-26T16:51:47.669Z,7.23
2017-08-26T16:54:15.204Z,7.83
2017-08-26T16:56:42.726Z,7.40
2017-08-26T16:59:10.285Z,7.00
2017-08-26T17:01:37.824Z,7.63
2017-08-26T17:04:05.364Z,7.83
2017-08-26T17:06:32.923Z,7.50
2017-08-26T17:09:00.466Z,7.43
2017-08-26T17:11:28.430Z,7.90
2017-08-26T17:13:56.022Z,7.13
2017-08-26T17:16:23.579Z,7.33
2017-08-26T17:18:51.106Z,6.63
2017-08-26T17:21:18.622Z,7.37
2017-08-26T17:23:46.177Z,7.80
2017-08-26T17:26:13.706Z,8.40
2017-08-26T17:28:41.230Z,7.70
2017-08-26T17:31:09.157Z,7.70
2017-08-26T17:33:36.709Z,8.63
2017-08-26T17:36:04.251Z,6.83
2017-08-26T17:38:31.821Z,6.93
2017-08-26T17:40:59.351Z,8.33
2017-08-26T17:43:26.874Z,6.60
2017-08-26T17:45:54.437Z,7.10
2017-08-26T17:48:21.955Z,7.13
2017-08-26T17:50:49.493Z,8.33
2017-08-26T17:53:17.171Z,16.63
2017-08-26T17:55:44.690Z,9.30
2017-08-26T17:58:12.233Z,8.20
2017-08-26T18:00:39.804Z,8.60
2017-08-26T18:03:07.414Z,8.43
2017-08-26T18:05:34.930Z,9.40
2017-08-26T18:08:02.630Z,8.03
2017-08-26T18:10:30.198Z,8.00
2017-08-26T18:12:57.762Z,8.57
2017-08-26T18:15:25.298Z,8.17
2017-08-26T18:17:52.841Z,8.80
2017-08-26T18:20:20.374Z,9.20
2017-08-26T18:22:48.001Z,8.03
2017-08-26T18:25:15.519Z,7.70
2017-08-26T18:27:43.107Z,8.13
2017-08-26T18:30:10.760Z,9.00
2017-08-26T18:32:38.279Z,8.50
2017-08-26T18:35:05.803Z,8.20
2017-08-26T18:37:33.440Z,9.33
2017-08-26T18:40:02.379Z,24.37
2017-08-26T18:42:30.022Z,10.83
2017-08-26T18:44:57.659Z,9.03
2017-08-26T18:47:25.220Z,15.03
2017-08-26T18:49:52.755Z,14.77
2017-08-26T18:52:20.295Z,9.30
2017-08-26T18:54:48.590Z,10.77
2017-08-26T18:57:16.181Z,12.10
2017-08-26T18:59:43.834Z,10.20
2017-08-26T19:02:11.626Z,19.53
2017-08-26T19:04:39.160Z,15.80
2017-08-26T19:07:06.718Z,9.83
2017-08-26T19:09:34.242Z,13.67
2017-08-26T19:12:01.833Z,9.27
2017-08-26T19:14:29.395Z,11.10
2017-08-26T19:16:56.936Z,12.80
2017-08-26T19:19:24.462Z,21.97
2017-08-26T19:21:52.089Z,17.33
2017-08-26T19:24:19.649Z,13.30
2017-08-26T19:26:47.173Z,13.20
2017-08-26T19:29:14.757Z,14.93
2017-08-26T19:31:42.291Z,11.60
2017-08-26T19:34:09.829Z,11.67
2017-08-26T19:36:38.353Z,11.40
2017-08-26T19:39:05.917Z,11.50
2017-08-26T19:41:33.486Z,11.27
2017-08-26T19:44:01.076Z,11.07
2017-08-26T19:46:28.603Z,11.47
2017-08-26T19:48:56.139Z,11.37
2017-08-26T19:51:23.728Z,10.93
2017-08-26T19:53:51.262Z,12.30
2017-08-26T19:56:18.790Z,10.90
2017-08-26T19:58:46.336Z,11.00
2017-08-26T20:01:13.864Z,11.60
2017-08-26T20:03:41.399Z,11.73
2017-08-26T20:06:08.965Z,11.70
2017-08-26T20:08:36.565Z,12.17
2017-08-26T20:11:04.198Z,13.37
2017-08-26T20:13:31.954Z,17.80
2017-08-26T20:15:59.526Z,16.40
2017-08-26T20:18:27.062Z,17.70
2017-08-26T20:20:54.640Z,17.80
2017-08-26T20:23:22.170Z,23.20
2017-08-26T20:25:49.734Z,13.07
2017-08-26T20:28:17.314Z,12.93
2017-08-26T20:30:44.858Z,11.60
2017-08-26T20:33:12.394Z,11.33
2017-08-26T20:35:39.999Z,11.57
2017-08-26T20:38:07.534Z,11.43
2017-08-26T20:40:35.109Z,10.10
2017-08-26T20:43:02.671Z,11.07
2017-08-26T20:45:30.205Z,14.03
2017-08-26T20:47:57.885Z,11.63
2017-08-26T20:50:25.439Z,12.33
2017-08-26T20:52:53.009Z,12.00
2017-08-26T20:55:20.539Z,12.00
2017-08-26T20:57:48.097Z,11.10
2017-08-26T21:00:15.625Z,13.87
2017-08-26T21:02:43.160Z,14.33
2017-08-26T21:05:10.715Z,13.07
2017-08-26T21:07:38.248Z,13.13
2017-08-26T21:10:05.772Z,12.70
2017-08-26T21:12:33.392Z,11.83
2017-08-26T21:15:00.938Z,12.00
2017-08-26T21:17:28.477Z,12.43
2017-08-26T21:19:56.060Z,13.03
2017-08-26T21:22:23.583Z,12.90
2017-08-26T21:24:51.193Z,13.40
2017-08-26T21:27:18.745Z,13.40
2017-08-26T21:29:46.269Z,13.27
2017-08-26T21:32:13.863Z,13.33
2017-08-26T21:34:41.413Z,12.73
2017-08-26T21:37:08.941Z,13.50
2017-08-26T21:39:36.558Z,11.73
2017-08-26T21:42:04.197Z,11.40
2017-08-26T21:44:31.757Z,14.87
2017-08-26T21:46:59.297Z,12.83
2017-08-26T21:49:26.846Z,11.90
2017-08-26T21:51:54.373Z,11.10
2017-08-26T21:54:22.001Z,11.40
2017-08-26T21:56:49.550Z,11.13
2017-08-26T21:59:17.119Z,11.07
2017-08-26T22:01:44.645Z,10.67
2017-08-26T22:04:13.053Z,11.50
2017-08-26T22:06:40.573Z,11.00
2017-08-26T22:09:08.172Z,9.63
2017-08-26T22:11:35.727Z,10.20
2017-08-26T22:14:03.241Z,9.73
2017-08-26T22:16:30.856Z,10.50
2017-08-26T22:18:58.514Z,11.00
2017-08-26T22:21:26.072Z,11.33
2017-08-26T22:23:53.635Z,10.37
2017-08-26T22:26:21.290Z,12.00
2017-08-26T22:28:48.826Z,11.07
2017-08-26T22:31:16.414Z,12.07
2017-08-26T22:33:44.074Z,13.00
2017-08-26T22:36:11.605Z,12.70
2017-08-26T22:38:39.138Z,13.10
2017-08-26T22:41:06.767Z,14.93
2017-08-26T22:43:34.297Z,12.37
2017-08-26T22:46:01.821Z,12.17
2017-08-26T22:48:29.437Z,12.87
2017-08-26T22:50:56.993Z,12.90
2017-08-26T22:53:24.551Z,12.63
2017-08-26T22:55:52.101Z,11.97
2017-08-26T22:58:19.670Z,14.10
2017-08-26T23:00:47.254Z,11.97
2017-08-26T23:03:14.797Z,13.90
2017-08-26T23:05:42.353Z,13.87
2017-08-26T23:08:09.877Z,13.90
2017-08-26T23:10:37.468Z,14.90
2017-08-26T23:13:05.029Z,13.70
2017-08-26T23:15:32.556Z,13.83
2017-08-26T23:18:00.093Z,13.67
2017-08-26T23:20:27.624Z,13.07
2017-08-26T23:22:55.164Z,13.73
2017-08-26T23:25:22.714Z,14.00
2017-08-26T23:27:50.282Z,13.07
2017-08-26T23:30:17.822Z,12.43
2017-08-26T23:32:45.398Z,12.90
2017-08-26T23:35:12.962Z,14.00
2017-08-26T23:37:40.520Z,14.30
2017-08-26T23:40:08.083Z,13.50
2017-08-26T23:42:35.645Z,15.40
2017-08-26T23:45:03.176Z,14.93
2017-08-26T23:47:30.721Z,15.83
2017-08-26T23:49:58.313Z,13.80
2017-08-26T23:52:25.843Z,15.03
2017-08-26T23:54:53.438Z,15.03
2017-08-26T23:57:20.965Z,14.87
2017-08-26T23:59:48.553Z,16.83
